createdAt,value
2018-08-18T00:00:20.168Z,82.53
2018-08-18T00:02:49.043Z,83.08
2018-08-18T00:05:18.700Z,83.93
2018-08-18T00:07:47.718Z,85.01
2018-08-18T00:10:20.172Z,82.76
2018-08-18T00:12:49.092Z,79.44
2018-08-18T00:15:18.043Z,79.34
2018-08-18T00:17:47.119Z,78.64
2018-08-18T00:20:18.068Z,78.49
2018-08-18T00:22:47.276Z,77.39
2018-08-18T00:25:16.205Z,77.87
2018-08-18T00:27:45.050Z,78.65
2018-08-18T00:30:19.176Z,78.94
2018-08-18T00:32:48.099Z,79.19
2018-08-18T00:35:17.044Z,78.48
2018-08-18T00:37:46.488Z,79.25
2018-08-18T00:40:15.447Z,80.15
2018-08-18T00:42:44.296Z,78.26
2018-08-18T00:45:14.101Z,78.69
2018-08-18T00:47:43.026Z,78.56
2018-08-18T00:50:13.696Z,80.24
2018-08-18T00:52:42.756Z,79.22
2018-08-18T00:55:11.720Z,78.00
2018-08-18T00:57:40.750Z,78.84
2018-08-18T01:00:09.655Z,76.85
2018-08-18T01:02:38.496Z,78.17
2018-08-18T01:05:07.474Z,78.86
2018-08-18T01:07:36.428Z,80.14
2018-08-18T01:10:05.596Z,81.44
2018-08-18T01:12:35.313Z,80.64
2018-08-18T01:15:04.228Z,79.30
2018-08-18T01:17:33.176Z,80.16
2018-08-18T01:20:02.061Z,79.50
2018-08-18T01:22:30.969Z,77.41
2018-08-18T01:24:59.823Z,72.72
2018-08-18T01:27:29.633Z,70.98
2018-08-18T01:30:04.491Z,66.98
2018-08-18T01:32:33.860Z,74.94
2018-08-18T01:35:02.761Z,72.17
2018-08-18T01:37:32.991Z,71.72
2018-08-18T01:40:02.160Z,75.19
2018-08-18T01:42:32.940Z,73.92
2018-08-18T01:45:01.904Z,74.61
2018-08-18T01:47:31.034Z,76.95
2018-08-18T01:50:04.368Z,70.30
2018-08-18T01:52:34.054Z,68.24
2018-08-18T01:55:03.065Z,67.66
2018-08-18T01:57:31.996Z,67.51
2018-08-18T02:00:05.539Z,65.93
2018-08-18T02:02:34.537Z,67.21
2018-08-18T02:05:12.299Z,63.81
2018-08-18T02:07:41.551Z,62.75
2018-08-18T02:10:10.457Z,65.96
2018-08-18T02:12:40.923Z,70.73
2018-08-18T02:15:09.760Z,74.13
2018-08-18T02:17:38.966Z,74.77
2018-08-18T02:20:09.581Z,71.53
2018-08-18T02:22:38.440Z,69.87
2018-08-18T02:25:07.423Z,69.30
2018-08-18T02:27:36.518Z,71.45
2018-08-18T02:30:17.525Z,71.21
2018-08-18T02:32:46.379Z,73.27
2018-08-18T02:35:15.356Z,70.92
2018-08-18T02:37:45.618Z,69.63
2018-08-18T02:40:16.259Z,72.50
2018-08-18T02:42:45.184Z,70.57
2018-08-18T02:45:14.965Z,67.13
2018-08-18T02:47:43.844Z,66.13
2018-08-18T02:50:13.838Z,67.16
2018-08-18T02:52:42.798Z,66.72
2018-08-18T02:55:12.432Z,69.23
2018-08-18T02:57:42.601Z,70.39
2018-08-18T03:00:14.063Z,68.52
2018-08-18T03:02:42.936Z,70.38
2018-08-18T03:05:11.851Z,70.55
2018-08-18T03:07:45.466Z,71.95
2018-08-18T03:10:19.432Z,68.98
2018-08-18T03:12:48.307Z,69.80
2018-08-18T03:16:19.855Z,70.79
2018-08-18T03:18:50.079Z,69.74
2018-08-18T03:21:20.340Z,68.20
2018-08-18T03:24:00.159Z,69.89
2018-08-18T03:26:48.904Z,69.73
2018-08-18T03:29:18.426Z,69.26
2018-08-18T03:31:47.656Z,69.68
2018-08-18T03:34:16.751Z,70.51
2018-08-18T03:36:48.128Z,70.02
2018-08-18T03:39:29.672Z,69.71
2018-08-18T03:41:59.864Z,70.51
2018-08-18T03:44:28.805Z,70.89
2018-08-18T03:46:57.647Z,70.67
2018-08-18T03:49:27.088Z,69.54
2018-08-18T03:51:56.564Z,71.12
2018-08-18T03:54:25.574Z,71.69
2018-08-18T03:56:54.608Z,72.33
2018-08-18T03:59:23.516Z,72.39
2018-08-18T04:01:53.735Z,69.87
2018-08-18T04:04:23.722Z,70.14
2018-08-18T04:06:53.823Z,69.70
2018-08-18T04:09:24.752Z,71.29
2018-08-18T04:11:53.817Z,70.98
2018-08-18T04:14:30.812Z,70.11
2018-08-18T04:16:59.753Z,70.55
2018-08-18T04:19:28.760Z,68.88
2018-08-18T04:21:57.796Z,66.78
2018-08-18T04:24:32.304Z,67.07
2018-08-18T04:27:01.767Z,67.52
2018-08-18T04:29:31.965Z,68.45
2018-08-18T04:32:01.600Z,69.24
2018-08-18T04:34:30.646Z,68.82
2018-08-18T04:37:00.570Z,69.06
2018-08-18T04:39:29.668Z,68.88
2018-08-18T04:41:58.575Z,69.72
2018-08-18T04:44:27.480Z,69.05
2018-08-18T04:46:56.419Z,68.40
2018-08-18T04:49:25.272Z,65.45
2018-08-18T04:51:54.160Z,65.32
2018-08-18T04:54:23.120Z,67.11
2018-08-18T04:56:52.228Z,67.35
2018-08-18T04:59:22.562Z,64.54
2018-08-18T05:01:51.392Z,64.36
2018-08-18T05:04:20.228Z,63.21
2018-08-18T05:06:49.129Z,63.71
2018-08-18T05:09:18.040Z,62.09
2018-08-18T05:11:47.043Z,63.16
2018-08-18T05:14:15.835Z,63.23
2018-08-18T05:16:44.746Z,62.96
2018-08-18T05:19:13.677Z,64.41
2018-08-18T05:21:42.649Z,63.09
2018-08-18T05:24:23.323Z,64.58
2018-08-18T05:26:53.295Z,63.34
2018-08-18T05:29:22.374Z,63.20
2018-08-18T05:31:51.356Z,62.26
2018-08-18T05:34:20.208Z,62.96
2018-08-18T05:36:49.063Z,62.60
2018-08-18T05:39:18.069Z,61.48
2018-08-18T05:41:46.973Z,61.94
2018-08-18T05:44:15.815Z,62.65
2018-08-18T05:46:44.736Z,61.73
2018-08-18T05:49:16.393Z,62.34
2018-08-18T05:51:47.538Z,62.20
2018-08-18T05:54:18.640Z,62.42
2018-08-18T05:56:47.511Z,61.83
2018-08-18T05:59:16.495Z,61.18
2018-08-18T06:01:45.558Z,61.45
2018-08-18T06:04:15.778Z,60.97
2018-08-18T06:06:45.653Z,60.28
2018-08-18T06:09:15.650Z,58.29
2018-08-18T06:11:44.703Z,60.09
2018-08-18T06:14:14.078Z,57.02
2018-08-18T06:16:43.456Z,58.77
2018-08-18T06:19:12.316Z,58.84
2018-08-18T06:21:41.240Z,57.27
2018-08-18T06:24:11.036Z,57.58
2018-08-18T06:26:40.023Z,55.31
2018-08-18T06:29:08.884Z,57.62
2018-08-18T06:32:14.369Z,56.18
2018-08-18T06:34:44.357Z,55.53
2018-08-18T06:37:13.281Z,55.29
2018-08-18T06:39:53.688Z,57.64
2018-08-18T06:42:36.564Z,56.72
2018-08-18T06:45:12.773Z,55.08
2018-08-18T06:47:42.185Z,55.46
2018-08-18T06:50:13.171Z,55.78
2018-08-18T06:52:42.375Z,55.28
2018-08-18T06:55:17.013Z,55.28
2018-08-18T06:57:48.543Z,56.45
2018-08-18T07:00:19.908Z,55.27
2018-08-18T07:02:48.856Z,55.21
2018-08-18T07:05:18.832Z,54.66
2018-08-18T07:07:48.421Z,54.23
2018-08-18T07:10:29.564Z,54.73
2018-08-18T07:13:02.732Z,54.39
2018-08-18T07:15:34.605Z,54.80
2018-08-18T07:18:03.604Z,54.48
2018-08-18T07:20:32.575Z,54.00
2018-08-18T07:23:01.582Z,55.04
2018-08-18T07:25:30.473Z,56.04
2018-08-18T07:28:04.350Z,54.62
2018-08-18T07:30:33.391Z,56.36
2018-08-18T07:33:02.575Z,56.35
2018-08-18T07:35:31.488Z,56.58
2018-08-18T07:38:00.461Z,56.17
2018-08-18T07:40:38.723Z,56.58
2018-08-18T07:43:08.503Z,56.39
2018-08-18T07:45:37.821Z,57.60
2018-08-18T07:48:07.719Z,56.61
2018-08-18T07:50:36.727Z,57.00
2018-08-18T07:53:05.611Z,55.27
2018-08-18T07:55:34.540Z,56.96
2018-08-18T07:58:05.055Z,56.75
2018-08-18T08:00:35.071Z,58.08
2018-08-18T08:03:04.205Z,57.11
2018-08-18T08:05:33.288Z,57.33
2018-08-18T08:08:02.164Z,56.95
2018-08-18T08:10:31.168Z,55.67
2018-08-18T08:13:00.179Z,54.19
2018-08-18T08:15:29.379Z,56.01
2018-08-18T08:17:58.281Z,54.48
2018-08-18T08:20:27.084Z,55.10
2018-08-18T08:22:56.497Z,55.74
2018-08-18T08:25:25.396Z,56.03
2018-08-18T08:27:54.961Z,55.05
2018-08-18T08:30:25.103Z,54.22
2018-08-18T08:32:53.956Z,54.94
2018-08-18T08:35:22.876Z,54.12
2018-08-18T08:37:52.859Z,53.69
2018-08-18T08:40:22.708Z,52.51
2018-08-18T08:42:51.680Z,53.56
2018-08-18T08:45:21.752Z,54.50
2018-08-18T08:47:50.567Z,53.50
2018-08-18T08:50:21.370Z,53.75
2018-08-18T08:52:55.339Z,54.29
2018-08-18T08:55:25.358Z,54.29
2018-08-18T08:57:54.272Z,53.63
2018-08-18T09:00:23.214Z,51.72
2018-08-18T09:02:52.135Z,53.19
2018-08-18T09:05:21.229Z,51.76
2018-08-18T09:07:50.187Z,51.21
2018-08-18T09:10:19.183Z,50.64
2018-08-18T09:12:48.851Z,50.63
2018-08-18T09:15:18.382Z,50.25
2018-08-18T09:17:47.235Z,50.94
2018-08-18T09:20:19.208Z,50.82
2018-08-18T09:22:58.252Z,50.07
2018-08-18T09:25:28.141Z,50.29
2018-08-18T09:27:58.050Z,49.87
2018-08-18T09:30:28.221Z,51.10
2018-08-18T09:33:02.198Z,49.76
2018-08-18T09:35:33.399Z,48.86
2018-08-18T09:38:02.427Z,50.02
2018-08-18T09:40:32.483Z,50.84
2018-08-18T09:43:04.660Z,51.13
2018-08-18T09:45:33.520Z,48.84
2018-08-18T09:48:02.476Z,48.53
2018-08-18T09:50:31.345Z,50.51
2018-08-18T09:53:00.204Z,52.16
2018-08-18T09:55:29.161Z,51.19
2018-08-18T09:57:58.015Z,50.91
2018-08-18T10:00:32.064Z,50.03
2018-08-18T10:03:00.987Z,50.27
2018-08-18T10:05:30.097Z,51.45
2018-08-18T10:07:59.116Z,50.87
2018-08-18T10:10:28.096Z,50.50
2018-08-18T10:12:56.996Z,51.25
2018-08-18T10:15:26.024Z,53.12
2018-08-18T10:17:54.948Z,55.02
2018-08-18T10:20:23.964Z,56.01
2018-08-18T10:22:52.795Z,56.37
2018-08-18T10:25:21.735Z,57.45
2018-08-18T10:27:50.704Z,59.41
2018-08-18T10:30:19.699Z,58.46
2018-08-18T10:32:55.081Z,58.71
2018-08-18T10:35:30.383Z,59.22
2018-08-18T10:38:00.483Z,58.04
2018-08-18T10:40:29.372Z,58.79
2018-08-18T10:42:58.443Z,58.75
2018-08-18T10:45:27.365Z,59.56
2018-08-18T10:47:56.276Z,56.32
2018-08-18T10:51:38.717Z,55.85
2018-08-18T10:54:07.854Z,57.07
2018-08-18T10:56:36.736Z,55.87
2018-08-18T10:59:14.888Z,55.03
2018-08-18T11:02:26.401Z,54.95
2018-08-18T11:04:55.268Z,55.17
2018-08-18T11:07:24.134Z,55.15
2018-08-18T11:09:53.099Z,54.74
2018-08-18T11:12:21.984Z,54.64
2018-08-18T11:14:55.940Z,54.11
2018-08-18T11:17:25.236Z,55.30
2018-08-18T11:19:55.577Z,54.27
2018-08-18T11:22:47.998Z,55.05
2018-08-18T11:25:16.829Z,55.21
2018-08-18T11:27:45.651Z,54.18
2018-08-18T11:30:14.570Z,54.89
2018-08-18T11:32:43.543Z,53.88
2018-08-18T11:35:12.524Z,52.38
2018-08-18T11:37:52.991Z,53.18
2018-08-18T11:40:22.891Z,53.17
2018-08-18T11:42:51.983Z,53.26
2018-08-18T11:45:22.140Z,53.57
2018-08-18T11:48:05.112Z,55.33
2018-08-18T11:50:34.204Z,57.79
2018-08-18T11:53:03.867Z,59.42
2018-08-18T11:55:32.812Z,57.88
2018-08-18T11:58:04.540Z,58.00
2018-08-18T12:00:37.563Z,57.48
2018-08-18T12:03:09.968Z,57.34
2018-08-18T12:05:44.879Z,59.08
2018-08-18T12:08:14.408Z,58.50
2018-08-18T12:10:43.578Z,58.71
2018-08-18T12:13:12.507Z,59.01
2018-08-18T12:15:56.003Z,57.79
2018-08-18T12:18:27.584Z,58.90
2018-08-18T12:20:58.795Z,58.07
2018-08-18T12:23:27.873Z,58.49
2018-08-18T12:26:01.729Z,58.13
2018-08-18T12:28:35.467Z,57.28
2018-08-18T12:31:06.389Z,58.28
2018-08-18T12:33:35.269Z,59.44
2018-08-18T12:36:04.163Z,59.03
2018-08-18T12:38:33.353Z,60.08
2018-08-18T12:41:03.008Z,62.51
2018-08-18T12:43:35.286Z,63.24
2018-08-18T12:46:04.977Z,62.24
2018-08-18T12:48:36.352Z,63.84
2018-08-18T12:51:05.779Z,67.73
2018-08-18T12:53:39.748Z,65.49
2018-08-18T12:56:08.964Z,65.26
2018-08-18T12:58:37.936Z,66.53
2018-08-18T13:01:06.888Z,66.41
2018-08-18T13:03:35.821Z,66.03
2018-08-18T13:06:04.869Z,67.35
2018-08-18T13:08:33.823Z,68.21
2018-08-18T13:11:02.693Z,68.48
2018-08-18T13:13:31.931Z,69.64
2018-08-18T13:16:01.162Z,70.75
2018-08-18T13:18:30.239Z,72.58
2018-08-18T13:20:59.164Z,74.50
2018-08-18T13:23:28.136Z,74.98
2018-08-18T13:25:57.032Z,75.64
2018-08-18T13:28:25.929Z,74.76
2018-08-18T13:30:54.852Z,75.39
2018-08-18T13:33:23.651Z,74.25
2018-08-18T13:35:52.611Z,72.70
2018-08-18T13:38:30.044Z,74.17
2018-08-18T13:40:59.025Z,71.76
2018-08-18T13:43:43.980Z,71.65
2018-08-18T13:46:14.382Z,71.62
2018-08-18T13:48:51.415Z,71.30
2018-08-18T13:51:21.012Z,71.23
2018-08-18T13:53:54.951Z,70.99
2018-08-18T13:56:29.024Z,68.61
2018-08-18T13:58:58.076Z,62.79
2018-08-18T14:01:31.417Z,62.82
2018-08-18T14:04:00.310Z,60.17
2018-08-18T14:06:29.336Z,56.73
2018-08-18T14:09:02.337Z,55.62
2018-08-18T14:11:31.773Z,56.95
2018-08-18T14:14:01.839Z,56.15
2018-08-18T14:16:31.522Z,57.28
2018-08-18T14:19:00.896Z,57.41
2018-08-18T14:21:29.978Z,56.71
2018-08-18T14:23:58.872Z,55.25
2018-08-18T14:26:27.744Z,53.61
2018-08-18T14:28:56.588Z,53.30
2018-08-18T14:31:25.448Z,60.47
2018-08-18T14:33:54.396Z,55.65
2018-08-18T14:36:24.360Z,55.19
2018-08-18T14:38:53.955Z,55.75
2018-08-18T14:41:43.141Z,55.69
2018-08-18T14:44:12.101Z,54.59
2018-08-18T14:46:41.194Z,55.14
2018-08-18T14:49:10.033Z,56.01
2018-08-18T14:51:38.948Z,53.87
2018-08-18T14:54:08.686Z,53.58
2018-08-18T14:56:37.535Z,53.29
2018-08-18T14:59:06.373Z,52.88
2018-08-18T15:01:35.343Z,52.09
2018-08-18T15:04:04.148Z,52.79
2018-08-18T15:06:33.116Z,52.87
2018-08-18T15:09:02.129Z,53.36
2018-08-18T15:11:30.986Z,57.24
2018-08-18T15:13:59.873Z,54.18
2018-08-18T15:16:28.710Z,53.54
2018-08-18T15:18:57.637Z,56.78
2018-08-18T15:21:26.573Z,56.09
2018-08-18T15:23:55.484Z,54.16
2018-08-18T15:26:24.420Z,53.98
2018-08-18T15:28:53.472Z,53.75
2018-08-18T15:31:22.517Z,54.78
2018-08-18T15:33:51.372Z,60.19
2018-08-18T15:36:32.275Z,66.66
2018-08-18T15:39:01.235Z,67.99
2018-08-18T15:41:30.053Z,69.02
2018-08-18T15:43:58.993Z,70.60
2018-08-18T15:46:27.920Z,71.14
2018-08-18T15:48:57.047Z,69.73
2018-08-18T15:51:25.883Z,64.90
2018-08-18T15:53:55.928Z,64.58
2018-08-18T15:56:25.945Z,61.90
2018-08-18T15:58:55.667Z,64.32
2018-08-18T16:01:28.000Z,61.22
2018-08-18T16:03:57.944Z,59.46
2018-08-18T16:06:26.860Z,63.38
2018-08-18T16:08:56.016Z,67.82
2018-08-18T16:11:24.985Z,71.71
2018-08-18T16:13:54.085Z,74.03
2018-08-18T16:16:23.087Z,74.32
2018-08-18T16:19:00.994Z,75.58
2018-08-18T16:21:31.824Z,77.40
2018-08-18T16:24:01.024Z,77.71
2018-08-18T16:26:29.935Z,79.56
2018-08-18T16:28:58.860Z,81.32
2018-08-18T16:31:27.943Z,81.94
2018-08-18T16:33:56.778Z,83.45
2018-08-18T16:36:31.953Z,84.06
2018-08-18T16:39:01.093Z,84.68
2018-08-18T16:41:30.028Z,86.23
2018-08-18T16:43:58.975Z,85.16
2018-08-18T16:46:29.465Z,85.24
2018-08-18T16:48:58.411Z,85.96
2018-08-18T16:51:27.450Z,84.89
2018-08-18T16:53:59.123Z,85.32
2018-08-18T16:56:30.262Z,86.64
2018-08-18T16:59:00.403Z,86.85
2018-08-18T17:01:29.309Z,88.29
2018-08-18T17:03:58.170Z,88.21
2018-08-18T17:06:27.108Z,87.01
2018-08-18T17:08:55.916Z,86.01
2018-08-18T17:11:24.792Z,85.93
2018-08-18T17:13:53.674Z,86.87
2018-08-18T17:16:22.818Z,85.44
2018-08-18T17:18:51.708Z,85.78
2018-08-18T17:21:20.690Z,84.85
2018-08-18T17:23:49.643Z,84.35
2018-08-18T17:26:18.595Z,82.98
2018-08-18T17:28:47.504Z,83.40
2018-08-18T17:31:16.448Z,81.13
2018-08-18T17:33:45.469Z,78.80
2018-08-18T17:36:14.386Z,78.07
2018-08-18T17:38:43.336Z,76.21
2018-08-18T17:41:12.292Z,75.82
2018-08-18T17:43:41.141Z,73.42
2018-08-18T17:46:10.028Z,72.23
2018-08-18T17:48:44.263Z,71.87
2018-08-18T17:51:13.172Z,71.59
2018-08-18T17:53:49.184Z,71.07
2018-08-18T17:56:18.067Z,69.84
2018-08-18T17:58:47.181Z,69.92
2018-08-18T18:01:16.016Z,69.27
2018-08-18T18:03:45.007Z,68.93
2018-08-18T18:06:13.901Z,66.95
2018-08-18T18:08:42.860Z,67.61
2018-08-18T18:11:11.784Z,67.67
2018-08-18T18:13:40.688Z,67.09
2018-08-18T18:16:28.285Z,67.86
2018-08-18T18:19:00.177Z,66.60
2018-08-18T18:21:29.189Z,67.91
2018-08-18T18:23:58.204Z,68.38
2018-08-18T18:26:27.169Z,66.62
2018-08-18T18:28:56.107Z,66.47
2018-08-18T18:31:24.921Z,67.50
2018-08-18T18:34:08.172Z,67.57
2018-08-18T18:36:37.009Z,68.19
2018-08-18T18:39:06.374Z,65.90
2018-08-18T18:41:35.244Z,65.72
2018-08-18T18:44:04.644Z,66.16
2018-08-18T18:46:33.662Z,65.51
2018-08-18T18:49:03.217Z,65.22
2018-08-18T18:51:32.124Z,65.75
2018-08-18T18:54:01.096Z,63.70
2018-08-18T18:56:30.034Z,61.38
2018-08-18T18:58:58.961Z,61.66
2018-08-18T19:01:27.871Z,61.21
2018-08-18T19:03:56.897Z,60.31
2018-08-18T19:06:25.860Z,61.07
2018-08-18T19:09:00.315Z,59.46
2018-08-18T19:11:29.288Z,59.29
2018-08-18T19:13:58.610Z,60.26
2018-08-18T19:16:27.585Z,59.57
2018-08-18T19:18:56.449Z,60.67
2018-08-18T19:21:30.654Z,62.75
2018-08-18T19:23:59.620Z,63.70
2018-08-18T19:26:37.243Z,61.37
2018-08-18T19:29:06.084Z,60.62
2018-08-18T19:31:35.893Z,59.27
2018-08-18T19:34:11.764Z,59.46
2018-08-18T19:36:53.620Z,59.85
2018-08-18T19:39:23.731Z,59.94
2018-08-18T19:41:52.784Z,59.14
2018-08-18T19:44:21.637Z,59.11
2018-08-18T19:46:50.527Z,58.84
2018-08-18T19:49:30.261Z,58.51
2018-08-18T19:52:03.693Z,58.59
2018-08-18T19:54:32.621Z,59.91
2018-08-18T19:57:01.601Z,59.59
2018-08-18T19:59:30.484Z,60.71
2018-08-18T20:01:59.674Z,60.16
2018-08-18T20:04:28.779Z,60.93
2018-08-18T20:06:57.950Z,61.69
2018-08-18T20:09:27.094Z,62.33
2018-08-18T20:11:56.043Z,62.77
2018-08-18T20:14:25.008Z,63.58
2018-08-18T20:16:53.947Z,64.14
2018-08-18T20:19:22.887Z,64.28
2018-08-18T20:21:51.711Z,64.79
2018-08-18T20:24:20.620Z,65.66
2018-08-18T20:26:49.577Z,66.17
2018-08-18T20:29:18.411Z,66.21
2018-08-18T20:32:00.013Z,66.77
2018-08-18T20:34:29.287Z,67.24
2018-08-18T20:36:58.115Z,66.87
2018-08-18T20:39:29.971Z,67.91
2018-08-18T20:41:59.095Z,68.14
2018-08-18T20:44:29.272Z,68.66
2018-08-18T20:46:58.536Z,69.35
2018-08-18T20:49:27.898Z,69.91
2018-08-18T20:51:56.848Z,69.93
2018-08-18T20:54:25.769Z,69.66
2018-08-18T20:56:54.598Z,69.10
2018-08-18T20:59:23.562Z,70.52
2018-08-18T21:01:52.593Z,68.37
2018-08-18T21:04:21.411Z,69.45
2018-08-18T21:06:50.283Z,70.60
2018-08-18T21:09:26.771Z,69.02
2018-08-18T21:11:55.706Z,69.82
2018-08-18T21:14:27.221Z,71.09
2018-08-18T21:16:56.258Z,70.44
2018-08-18T21:19:26.032Z,70.49
2018-08-18T21:21:55.881Z,70.27
2018-08-18T21:24:24.771Z,70.34
2018-08-18T21:26:53.745Z,70.65
2018-08-18T21:29:24.448Z,71.51
2018-08-18T21:31:53.287Z,71.97
2018-08-18T21:34:22.261Z,73.56
2018-08-18T21:36:51.139Z,75.14
2018-08-18T21:39:20.039Z,76.40
2018-08-18T21:41:49.291Z,75.85
2018-08-18T21:44:18.215Z,77.05
2018-08-18T21:46:47.164Z,78.39
2018-08-18T21:49:15.967Z,79.76
2018-08-18T21:51:44.920Z,81.20
2018-08-18T21:54:13.731Z,81.86
2018-08-18T21:56:43.431Z,82.81
2018-08-18T21:59:13.664Z,83.86
2018-08-18T22:01:42.695Z,83.83
2018-08-18T22:04:11.612Z,83.67
2018-08-18T22:06:40.559Z,83.97
2018-08-18T22:09:23.060Z,84.99
2018-08-18T22:11:52.055Z,84.49
2018-08-18T22:14:20.971Z,85.65
2018-08-18T22:16:55.167Z,85.21
2018-08-18T22:19:24.147Z,85.55
2018-08-18T22:21:53.172Z,85.73
2018-08-18T22:24:22.003Z,85.90
2018-08-18T22:26:50.917Z,84.47
2018-08-18T22:29:23.803Z,84.18
2018-08-18T22:31:53.037Z,80.19
2018-08-18T22:34:21.882Z,81.92
2018-08-18T22:36:50.925Z,78.51
2018-08-18T22:39:19.824Z,72.66
2018-08-18T22:41:48.712Z,67.00
2018-08-18T22:44:17.611Z,66.05
2018-08-18T22:46:46.684Z,65.58
2018-08-18T22:49:15.700Z,64.48
2018-08-18T22:51:44.545Z,62.47
2018-08-18T22:54:13.368Z,62.29
2018-08-18T22:56:42.591Z,62.90
2018-08-18T22:59:11.801Z,62.20
2018-08-18T23:01:40.743Z,61.07
2018-08-18T23:04:27.872Z,61.67
2018-08-18T23:06:57.280Z,61.92
2018-08-18T23:09:26.331Z,61.97
2018-08-18T23:11:56.971Z,62.96
2018-08-18T23:14:25.971Z,65.20
2018-08-18T23:16:54.965Z,67.52
2018-08-18T23:19:23.785Z,67.15
2018-08-18T23:21:52.672Z,67.26
2018-08-18T23:24:31.953Z,65.98
2018-08-18T23:27:01.180Z,67.11
2018-08-18T23:29:30.170Z,73.41
2018-08-18T23:31:59.668Z,82.25
2018-08-18T23:34:28.612Z,81.48
2018-08-18T23:36:57.664Z,79.38
2018-08-18T23:39:26.510Z,84.68
2018-08-18T23:42:19.144Z,88.15
2018-08-18T23:44:48.576Z,88.38
2018-08-18T23:47:17.701Z,88.69
2018-08-18T23:49:46.768Z,90.64
2018-08-18T23:52:15.649Z,88.96
2018-08-18T23:54:44.592Z,85.73
2018-08-18T23:57:15.019Z,86.62
2018-08-18T23:59:44.227Z,86.81
